sensor_id;sensor_type;location;lat;lon;timestamp;P1;durP1;ratioP1;P2;durP2;ratioP2
44358;SDS011;30077;52.474;13.326;2023-10-08T00:08:52;5.88;;;2.88;;
44358;SDS011;30077;52.474;13.326;2023-10-08T00:18:59;5.47;;;2.30;;
44358;SDS011;30077;52.474;13.326;2023-10-08T00:29:03;5.38;;;2.25;;
44358;SDS011;30077;52.474;13.326;2023-10-08T00:39:06;8.52;;;2.63;;
44358;SDS011;30077;52.474;13.326;2023-10-08T00:49:15;10.45;;;3.58;;
44358;SDS011;30077;52.474;13.326;2023-10-08T00:59:24;12.88;;;3.42;;
44358;SDS011;30077;52.474;13.326;2023-10-08T01:09:25;13.93;;;3.67;;
44358;SDS011;30077;52.474;13.326;2023-10-08T01:19:35;8.32;;;2.95;;
44358;SDS011;30077;52.474;13.326;2023-10-08T01:29:40;9.32;;;3.33;;
44358;SDS011;30077;52.474;13.326;2023-10-08T01:39:47;12.07;;;3.90;;
44358;SDS011;30077;52.474;13.326;2023-10-08T01:49:50;7.85;;;3.47;;
44358;SDS011;30077;52.474;13.326;2023-10-08T01:59:50;11.75;;;4.25;;
44358;SDS011;30077;52.474;13.326;2023-10-08T02:09:51;17.50;;;4.83;;
44358;SDS011;30077;52.474;13.326;2023-10-08T02:19:52;14.45;;;6.03;;
44358;SDS011;30077;52.474;13.326;2023-10-08T02:29:53;14.00;;;5.67;;
44358;SDS011;30077;52.474;13.326;2023-10-08T02:39:54;19.77;;;6.80;;
44358;SDS011;30077;52.474;13.326;2023-10-08T02:49:55;21.30;;;6.97;;
44358;SDS011;30077;52.474;13.326;2023-10-08T02:59:56;20.30;;;7.28;;
44358;SDS011;30077;52.474;13.326;2023-10-08T03:09:58;23.77;;;8.53;;
44358;SDS011;30077;52.474;13.326;2023-10-08T03:20:06;18.08;;;7.75;;
44358;SDS011;30077;52.474;13.326;2023-10-08T03:30:29;22.35;;;8.48;;
44358;SDS011;30077;52.474;13.326;2023-10-08T03:40:30;23.67;;;7.47;;
44358;SDS011;30077;52.474;13.326;2023-10-08T03:50:43;13.88;;;6.22;;
44358;SDS011;30077;52.474;13.326;2023-10-08T04:00:44;21.58;;;6.80;;
44358;SDS011;30077;52.474;13.326;2023-10-08T04:10:46;16.27;;;5.25;;
44358;SDS011;30077;52.474;13.326;2023-10-08T04:20:47;19.90;;;5.97;;
44358;SDS011;30077;52.474;13.326;2023-10-08T04:31:01;23.98;;;6.68;;
44358;SDS011;30077;52.474;13.326;2023-10-08T04:41:15;24.60;;;6.47;;
44358;SDS011;30077;52.474;13.326;2023-10-08T04:51:19;13.57;;;6.07;;
44358;SDS011;30077;52.474;13.326;2023-10-08T05:01:22;17.73;;;6.10;;
44358;SDS011;30077;52.474;13.326;2023-10-08T05:21:51;18.55;;;5.97;;
44358;SDS011;30077;52.474;13.326;2023-10-08T05:32:01;14.95;;;6.18;;
44358;SDS011;30077;52.474;13.326;2023-10-08T05:52:47;21.38;;;6.97;;
44358;SDS011;30077;52.474;13.326;2023-10-08T06:02:53;16.70;;;7.13;;
44358;SDS011;30077;52.474;13.326;2023-10-08T06:13:19;18.88;;;6.40;;
44358;SDS011;30077;52.474;13.326;2023-10-08T06:23:29;25.92;;;5.60;;
44358;SDS011;30077;52.474;13.326;2023-10-08T06:33:32;27.75;;;5.72;;
44358;SDS011;30077;52.474;13.326;2023-10-08T06:43:37;21.87;;;5.77;;
44358;SDS011;30077;52.474;13.326;2023-10-08T06:53:41;12.45;;;3.88;;
44358;SDS011;30077;52.474;13.326;2023-10-08T07:03:44;12.45;;;3.13;;
44358;SDS011;30077;52.474;13.326;2023-10-08T07:13:46;10.05;;;3.50;;
44358;SDS011;30077;52.474;13.326;2023-10-08T07:23:47;10.32;;;2.60;;
44358;SDS011;30077;52.474;13.326;2023-10-08T07:33:57;5.13;;;2.10;;
44358;SDS011;30077;52.474;13.326;2023-10-08T07:44:15;9.18;;;2.53;;
44358;SDS011;30077;52.474;13.326;2023-10-08T07:54:21;7.78;;;2.67;;
44358;SDS011;30077;52.474;13.326;2023-10-08T08:04:24;5.45;;;2.10;;
44358;SDS011;30077;52.474;13.326;2023-10-08T08:14:33;3.75;;;2.10;;
44358;SDS011;30077;52.474;13.326;2023-10-08T08:24:34;4.93;;;2.05;;
44358;SDS011;30077;52.474;13.326;2023-10-08T08:34:37;4.25;;;1.70;;
44358;SDS011;30077;52.474;13.326;2023-10-08T08:44:38;4.15;;;1.58;;
44358;SDS011;30077;52.474;13.326;2023-10-08T08:54:49;3.75;;;1.42;;
44358;SDS011;30077;52.474;13.326;2023-10-08T09:04:51;2.17;;;1.30;;
44358;SDS011;30077;52.474;13.326;2023-10-08T09:14:59;2.05;;;1.08;;
44358;SDS011;30077;52.474;13.326;2023-10-08T09:25:02;2.05;;;1.23;;
44358;SDS011;30077;52.474;13.326;2023-10-08T09:35:07;4.72;;;1.90;;
44358;SDS011;30077;52.474;13.326;2023-10-08T09:45:14;1.63;;;0.90;;
44358;SDS011;30077;52.474;13.326;2023-10-08T09:55:15;1.05;;;0.90;;
44358;SDS011;30077;52.474;13.326;2023-10-08T10:05:21;1.15;;;0.90;;
44358;SDS011;30077;52.474;13.326;2023-10-08T10:15:24;0.90;;;0.80;;
44358;SDS011;30077;52.474;13.326;2023-10-08T10:25:33;5.05;;;1.50;;
44358;SDS011;30077;52.474;13.326;2023-10-08T10:35:48;2.00;;;1.02;;
44358;SDS011;30077;52.474;13.326;2023-10-08T10:45:51;6.30;;;1.15;;
44358;SDS011;30077;52.474;13.326;2023-10-08T10:55:55;2.00;;;0.90;;
44358;SDS011;30077;52.474;13.326;2023-10-08T11:06:03;2.00;;;1.17;;
44358;SDS011;30077;52.474;13.326;2023-10-08T11:16:15;3.15;;;0.93;;
44358;SDS011;30077;52.474;13.326;2023-10-08T11:26:15;2.93;;;1.27;;
44358;SDS011;30077;52.474;13.326;2023-10-08T11:36:17;1.50;;;0.93;;
44358;SDS011;30077;52.474;13.326;2023-10-08T11:46:21;4.85;;;2.03;;
44358;SDS011;30077;52.474;13.326;2023-10-08T11:56:26;4.28;;;1.10;;
44358;SDS011;30077;52.474;13.326;2023-10-08T12:06:30;3.83;;;1.00;;
44358;SDS011;30077;52.474;13.326;2023-10-08T12:16:32;2.85;;;1.05;;
44358;SDS011;30077;52.474;13.326;2023-10-08T12:26:36;3.42;;;1.23;;
44358;SDS011;30077;52.474;13.326;2023-10-08T12:36:45;2.17;;;1.10;;
44358;SDS011;30077;52.474;13.326;2023-10-08T12:46:48;1.48;;;0.80;;
44358;SDS011;30077;52.474;13.326;2023-10-08T12:56:48;6.25;;;0.95;;
44358;SDS011;30077;52.474;13.326;2023-10-08T13:06:49;2.20;;;1.15;;
44358;SDS011;30077;52.474;13.326;2023-10-08T13:16:51;2.22;;;1.27;;
44358;SDS011;30077;52.474;13.326;2023-10-08T13:26:53;3.03;;;1.20;;
44358;SDS011;30077;52.474;13.326;2023-10-08T13:36:54;2.30;;;1.13;;
44358;SDS011;30077;52.474;13.326;2023-10-08T13:46:56;3.60;;;1.02;;
44358;SDS011;30077;52.474;13.326;2023-10-08T13:56:59;1.63;;;0.77;;
44358;SDS011;30077;52.474;13.326;2023-10-08T14:07:01;3.15;;;0.98;;
44358;SDS011;30077;52.474;13.326;2023-10-08T14:17:04;2.05;;;1.05;;
44358;SDS011;30077;52.474;13.326;2023-10-08T14:27:07;2.13;;;1.10;;
44358;SDS011;30077;52.474;13.326;2023-10-08T14:37:11;3.05;;;1.27;;
44358;SDS011;30077;52.474;13.326;2023-10-08T14:47:31;2.55;;;0.90;;
44358;SDS011;30077;52.474;13.326;2023-10-08T14:57:31;2.87;;;1.07;;
44358;SDS011;30077;52.474;13.326;2023-10-08T15:07:33;1.58;;;0.90;;
44358;SDS011;30077;52.474;13.326;2023-10-08T15:17:34;3.00;;;1.10;;
44358;SDS011;30077;52.474;13.326;2023-10-08T15:27:36;5.15;;;1.67;;
44358;SDS011;30077;52.474;13.326;2023-10-08T15:37:41;7.97;;;1.70;;
44358;SDS011;30077;52.474;13.326;2023-10-08T15:47:42;3.97;;;1.70;;
44358;SDS011;30077;52.474;13.326;2023-10-08T15:57:43;5.40;;;2.20;;
44358;SDS011;30077;52.474;13.326;2023-10-08T16:07:44;3.07;;;1.60;;
44358;SDS011;30077;52.474;13.326;2023-10-08T16:17:45;2.90;;;1.38;;
44358;SDS011;30077;52.474;13.326;2023-10-08T16:27:47;3.03;;;1.50;;
44358;SDS011;30077;52.474;13.326;2023-10-08T16:37:49;2.53;;;1.73;;
44358;SDS011;30077;52.474;13.326;2023-10-08T16:47:51;4.07;;;1.85;;
44358;SDS011;30077;52.474;13.326;2023-10-08T16:57:52;5.35;;;2.20;;
44358;SDS011;30077;52.474;13.326;2023-10-08T17:07:53;3.28;;;2.08;;
44358;SDS011;30077;52.474;13.326;2023-10-08T17:17:55;4.65;;;2.75;;
44358;SDS011;30077;52.474;13.326;2023-10-08T17:27:56;4.27;;;2.03;;
44358;SDS011;30077;52.474;13.326;2023-10-08T17:37:57;5.60;;;2.93;;
44358;SDS011;30077;52.474;13.326;2023-10-08T17:47:58;4.07;;;2.80;;
44358;SDS011;30077;52.474;13.326;2023-10-08T17:58:00;5.78;;;3.20;;
44358;SDS011;30077;52.474;13.326;2023-10-08T18:08:03;5.97;;;3.35;;
44358;SDS011;30077;52.474;13.326;2023-10-08T18:18:06;9.45;;;3.95;;
44358;SDS011;30077;52.474;13.326;2023-10-08T18:28:10;10.23;;;5.63;;
44358;SDS011;30077;52.474;13.326;2023-10-08T18:38:11;7.18;;;3.67;;
44358;SDS011;30077;52.474;13.326;2023-10-08T18:48:12;7.82;;;4.30;;
44358;SDS011;30077;52.474;13.326;2023-10-08T18:58:15;6.90;;;3.72;;
44358;SDS011;30077;52.474;13.326;2023-10-08T19:08:17;5.35;;;3.63;;
44358;SDS011;30077;52.474;13.326;2023-10-08T19:18:19;9.45;;;4.50;;
44358;SDS011;30077;52.474;13.326;2023-10-08T19:28:22;9.60;;;5.22;;
44358;SDS011;30077;52.474;13.326;2023-10-08T19:38:24;25.92;;;13.38;;
44358;SDS011;30077;52.474;13.326;2023-10-08T19:48:25;8.57;;;5.60;;
44358;SDS011;30077;52.474;13.326;2023-10-08T19:58:27;9.93;;;5.95;;
44358;SDS011;30077;52.474;13.326;2023-10-08T20:08:27;9.37;;;5.00;;
44358;SDS011;30077;52.474;13.326;2023-10-08T20:18:28;8.47;;;5.27;;
44358;SDS011;30077;52.474;13.326;2023-10-08T20:28:30;7.75;;;5.03;;
44358;SDS011;30077;52.474;13.326;2023-10-08T20:38:32;9.35;;;4.05;;
44358;SDS011;30077;52.474;13.326;2023-10-08T20:48:33;6.03;;;3.75;;
44358;SDS011;30077;52.474;13.326;2023-10-08T20:58:34;11.60;;;4.85;;
44358;SDS011;30077;52.474;13.326;2023-10-08T21:08:34;9.43;;;4.57;;
44358;SDS011;30077;52.474;13.326;2023-10-08T21:18:35;5.53;;;3.78;;
44358;SDS011;30077;52.474;13.326;2023-10-08T21:28:36;7.07;;;3.60;;
44358;SDS011;30077;52.474;13.326;2023-10-08T21:38:36;7.30;;;3.50;;
44358;SDS011;30077;52.474;13.326;2023-10-08T21:48:37;7.30;;;3.20;;
44358;SDS011;30077;52.474;13.326;2023-10-08T21:58:38;9.77;;;4.10;;
44358;SDS011;30077;52.474;13.326;2023-10-08T22:08:39;6.22;;;2.88;;
44358;SDS011;30077;52.474;13.326;2023-10-08T22:18:40;5.18;;;2.88;;
44358;SDS011;30077;52.474;13.326;2023-10-08T22:28:56;4.05;;;2.78;;
44358;SDS011;30077;52.474;13.326;2023-10-08T22:38:57;7.83;;;3.40;;
44358;SDS011;30077;52.474;13.326;2023-10-08T22:48:57;7.20;;;3.22;;
44358;SDS011;30077;52.474;13.326;2023-10-08T23:09:07;6.47;;;3.42;;
44358;SDS011;30077;52.474;13.326;2023-10-08T23:19:13;7.03;;;3.70;;
44358;SDS011;30077;52.474;13.326;2023-10-08T23:29:14;5.80;;;3.70;;
44358;SDS011;30077;52.474;13.326;2023-10-08T23:39:15;6.43;;;3.30;;
44358;SDS011;30077;52.474;13.326;2023-10-08T23:49:17;5.00;;;2.85;;
44358;SDS011;30077;52.474;13.326;2023-10-08T23:59:19;8.27;;;3.75;;
